CAA9 weather

Public forecast

Using degrees Celsius for public forecast. Weather courtesy of forecast.io.

Closest aviation weather report (METAR) to Port Alberni/Sproat Lake Seaplane Base

Closest report is Comox Airport, 25.4 nm (47.0 km) N. Retrieved 2020/08/09 13:00 UTC (58 minutes ago):

CYQQ 091300Z 29004KT 20SM FEW100 12/08 A3027 RMK AC1 SLP251

Closest aviation forecast (TAF) to Port Alberni/Sproat Lake Seaplane Base

Closest forecast is Comox Airport, 25.4 nm (47.0 km) N. Retrieved 2020/08/09 12:42 UTC (1 hour ago):

TAF CYQQ 091139Z 0912/1012 30005KT P6SM FEW250 FM091400 32008KT P6SM FEW020 FM092100 02005KT P6SM SCT070 TEMPO 0922/1001 BKN070 FM100100 33005KT P6SM SCT060 FM100900 30008KT P6SM SCT040 RMK NXT FCST BY 091800Z